Time;durP1;ratioP1;P1;durP2;ratioP2;P2;SDS_P1;SDS_P2;PMS_P1;PMS_P2;Temp;Humidity;BMP_temperature;BMP_pressure;BME280_temperature;BME280_humidity;BME280_pressure;Samples;Min_cycle;Max_cycle;Signal;HPM_P1;HPM_P2
2022/10/28 00:00:29;;;;;;;6.50;3.10;;;;;;;19.87;60.65;101669.47;5039062;28;20037;-63
2022/10/28 00:02:54;;;;;;;9.37;3.47;;;;;;;19.84;60.53;101672.34;5040595;28;20263;-61
2022/10/28 00:05:20;;;;;;;6.32;3.40;;;;;;;19.87;60.58;101679.22;5023504;28;20258;-64
2022/10/28 00:07:45;;;;;;;5.38;3.25;;;;;;;19.89;60.56;101682.59;5029982;28;20091;-63
2022/10/28 00:10:10;;;;;;;7.10;3.25;;;;;;;19.82;60.41;101668.13;5042583;28;20033;-64
2022/10/28 00:12:36;;;;;;;6.35;3.53;;;;;;;19.87;60.46;101676.59;5022982;28;20029;-63
2022/10/28 00:15:03;;;;;;;5.40;3.10;;;;;;;19.87;60.62;101685.34;5041599;28;20139;-63
2022/10/28 00:17:28;;;;;;;7.63;3.25;;;;;;;19.84;60.58;101682.09;5041993;28;20028;-63
2022/10/28 00:19:54;;;;;;;8.13;4.23;;;;;;;19.84;60.44;101676.81;5028079;28;20334;-63
2022/10/28 00:22:19;;;;;;;6.60;3.50;;;;;;;19.83;60.30;101681.25;5023401;28;20365;-63
2022/10/28 00:24:44;;;;;;;6.17;3.27;;;;;;;19.84;60.48;101682.09;5029921;28;20270;-63
2022/10/28 00:27:09;;;;;;;5.63;3.20;;;;;;;19.79;60.62;101674.50;5035521;28;20274;-64
2022/10/28 00:29:34;;;;;;;6.70;3.50;;;;;;;19.74;60.59;101658.97;5042655;28;20312;-63
2022/10/28 00:32:00;;;;;;;5.27;3.23;;;;;;;19.78;60.60;101670.16;5025602;28;20309;-65
2022/10/28 00:34:25;;;;;;;8.13;3.20;;;;;;;19.72;60.58;101660.84;5032809;28;20254;-64
2022/10/28 00:36:50;;;;;;;8.07;3.53;;;;;;;19.78;60.54;101670.16;5025368;28;20281;-64
2022/10/28 00:39:18;;;;;;;6.70;3.30;;;;;;;19.73;60.24;101669.66;5030180;28;20285;-63
2022/10/28 00:41:49;;;;;;;5.38;2.92;;;;;;;19.70;60.54;101662.78;5041963;28;20120;-64
2022/10/28 00:44:52;;;;;;;6.72;3.75;;;;;;;19.77;60.36;101670.28;5039911;28;20035;-63
2022/10/28 00:47:32;;;;;;;5.55;3.45;;;;;;;19.76;60.43;101677.38;5041987;28;20256;-64
2022/10/28 00:50:20;;;;;;;8.10;3.47;;;;;;;19.75;60.50;101665.09;5023450;28;20473;-64
2022/10/28 00:52:51;;;;;;;7.63;3.55;;;;;;;19.74;60.64;101658.09;5016306;28;20048;-64
2022/10/28 00:55:18;;;;;;;7.40;3.10;;;;;;;19.70;60.52;101648.72;5029813;28;20037;-63
2022/10/28 00:57:45;;;;;;;7.88;3.33;;;;;;;19.72;60.33;101652.91;5033772;28;20098;-65
2022/10/28 01:00:11;;;;;;;6.22;3.60;;;;;;;19.68;60.20;101637.44;5022362;28;20095;-63
2022/10/28 01:02:43;;;;;;;5.70;3.13;;;;;;;19.72;60.37;101650.28;5028697;28;20072;-64
2022/10/28 01:05:10;;;;;;;6.18;3.20;;;;;;;19.70;60.33;101635.50;5029379;28;20061;-63
2022/10/28 01:07:36;;;;;;;7.35;3.30;;;;;;;19.64;60.24;101623.56;5025243;28;20033;-66
2022/10/28 01:10:01;;;;;;;7.47;3.60;;;;;;;19.66;60.06;101620.81;5025336;28;20032;-64
2022/10/28 01:12:40;;;;;;;5.82;3.08;;;;;;;19.62;60.25;101614.91;5041468;28;20362;-65
2022/10/28 01:15:28;;;;;;;5.88;3.45;;;;;;;19.64;60.02;101617.44;5032985;28;20597;-66
2022/10/28 01:18:11;;;;;;;6.80;3.63;;;;;;;19.69;60.35;101632.03;5027313;28;20127;-63
2022/10/28 01:20:58;;;;;;;5.15;3.30;;;;;;;19.69;60.38;101628.50;5029455;28;20029;-64
2022/10/28 01:23:59;;;;;;;8.35;3.40;;;;;;;19.68;60.18;101635.63;5028860;28;20682;-63
2022/10/28 01:26:42;;;;;;;5.55;3.15;;;;;;;19.62;59.81;101620.22;5031520;28;20473;-63
2022/10/28 01:29:38;;;;;;;6.15;3.15;;;;;;;19.60;60.19;101622.13;5032046;28;20034;-63
2022/10/28 01:32:12;;;;;;;6.28;3.30;;;;;;;19.63;59.85;101621.03;5026764;28;20104;-64
2022/10/28 01:34:51;;;;;;;6.93;3.58;;;;;;;19.64;60.14;101622.75;5028975;28;20079;-64
2022/10/28 01:37:42;;;;;;;8.00;3.40;;;;;;;19.65;60.18;101627.91;5029761;28;20059;-64
2022/10/28 01:40:38;;;;;;;5.80;3.50;;;;;;;19.57;59.76;101617.91;5034333;28;20037;-64
2022/10/28 01:43:15;;;;;;;5.55;3.35;;;;;;;19.60;59.84;101608.06;5025000;28;20033;-64
2022/10/28 01:46:10;;;;;;;6.30;3.47;;;;;;;19.63;59.67;101613.09;5029457;28;20120;-64
2022/10/28 01:48:43;;;;;;;5.50;3.40;;;;;;;19.60;59.56;101614.19;5029226;28;20116;-62
2022/10/28 01:51:17;;;;;;;6.63;3.73;;;;;;;19.52;59.81;101598.91;5027077;28;20045;-64
2022/10/28 01:53:46;;;;;;;;;;;;;;;19.58;59.87;101614.31;5035101;28;20104;-64
2022/10/28 01:56:15;;;;;;;8.57;3.30;;;;;;;19.54;59.76;101606.72;5031069;28;19923;-64
2022/10/28 01:58:42;;;;;;;6.22;3.20;;;;;;;19.51;59.59;101601.66;5034737;28;20033;-63
2022/10/28 02:01:09;;;;;;;6.30;3.17;;;;;;;19.56;59.92;101610.91;5034661;28;20373;-63
2022/10/28 02:03:34;;;;;;;6.03;3.22;;;;;;;19.47;59.87;101598.41;5032781;28;20037;-64
2022/10/28 02:06:03;;;;;;;9.50;3.53;;;;;;;19.54;59.73;101604.09;5032852;28;20033;-64
2022/10/28 02:08:35;;;;;;;6.03;3.22;;;;;;;19.58;59.54;101609.03;5039647;28;20052;-64
2022/10/28 02:11:00;;;;;;;7.13;2.97;;;;;;;19.58;59.50;101606.38;5039504;28;20072;-63
2022/10/28 02:14:07;;;;;;;5.70;3.20;;;;;;;19.57;59.56;101606.50;5039686;28;20060;-63
2022/10/28 02:17:07;;;;;;;6.50;3.22;;;;;;;19.50;59.84;101600.84;5034042;28;20033;-63
2022/10/28 02:19:45;;;;;;;6.43;3.45;;;;;;;19.57;59.55;101607.34;5029008;28;20021;-64
2022/10/28 02:22:35;;;;;;;7.45;3.60;;;;;;;19.56;59.58;101616.22;5035527;28;20477;-64
2022/10/28 02:25:27;;;;;;;6.07;3.13;;;;;;;19.56;59.38;101615.38;5027688;28;20849;-64
2022/10/28 02:28:08;;;;;;;7.50;3.10;;;;;;;19.52;59.65;101603.38;5019571;28;20075;-63
2022/10/28 02:30:56;;;;;;;7.72;3.42;;;;;;;19.54;59.66;101604.91;5033657;28;20040;-62
2022/10/28 02:33:26;;;;;;;6.43;3.25;;;;;;;19.53;59.17;101602.38;5028618;28;20115;-63
2022/10/28 02:35:56;;;;;;;6.78;3.03;;;;;;;19.34;59.22;101574.72;5033220;28;20060;-62
2022/10/28 02:38:35;;;;;;;5.72;3.20;;;;;;;19.52;59.54;101603.38;5033201;28;20056;-63
2022/10/28 02:41:07;;;;;;;7.22;3.20;;;;;;;19.47;59.18;101592.28;5033057;28;20463;-63
2022/10/28 02:43:35;;;;;;;7.38;3.03;;;;;;;19.47;59.32;101593.13;5033412;28;20469;-63
2022/10/28 02:46:03;;;;;;;7.70;3.28;;;;;;;19.49;59.35;101596.50;5036142;28;20033;-63
2022/10/28 02:49:06;;;;;;;5.97;3.55;;;;;;;19.50;59.52;101611.41;5029871;28;20037;-63
2022/10/28 02:51:40;;;;;;;5.70;3.10;;;;;;;19.45;59.38;101599.47;4989796;28;20038;-63
2022/10/28 02:54:10;;;;;;;6.13;3.50;;;;;;;19.51;59.43;101602.50;5038926;28;20056;-63
2022/10/28 02:56:42;;;;;;;6.15;3.10;;;;;;;19.49;59.37;101599.13;5044577;28;20095;-64
2022/10/28 02:59:11;;;;;;;5.82;3.22;;;;;;;19.43;59.37;101582.91;5031740;28;20037;-63
2022/10/28 03:01:37;;;;;;;7.65;3.05;;;;;;;19.44;59.56;101581.94;5035996;28;20033;-64
2022/10/28 03:04:03;;;;;;;5.95;3.17;;;;;;;19.45;59.27;101584.44;5029453;28;20103;-63
2022/10/28 03:06:29;;;;;;;6.07;2.80;;;;;;;19.50;59.15;101595.56;5042677;28;20423;-65
2022/10/28 03:08:54;;;;;;;6.20;3.40;;;;;;;19.43;59.23;101583.75;5025729;28;20033;-63
2022/10/28 03:11:19;;;;;;;6.67;2.87;;;;;;;19.43;59.09;101585.53;5024219;28;20391;-63
2022/10/28 03:13:45;;;;;;;6.60;3.13;;;;;;;19.47;59.09;101593.13;5024505;28;20270;-63
2022/10/28 03:16:10;;;;;;;7.03;3.05;;;;;;;19.41;59.31;101575.09;5027511;28;21171;-64
2022/10/28 03:18:35;;;;;;;6.43;3.00;;;;;;;19.40;59.05;101576.03;5038220;28;20488;-64
2022/10/28 03:21:00;;;;;;;7.10;2.87;;;;;;;19.48;59.02;101593.97;5025090;28;20255;-63
2022/10/28 03:23:26;;;;;;;7.17;3.40;;;;;;;19.46;59.12;101587.97;5030633;28;20286;-64
2022/10/28 03:25:51;;;;;;;6.10;2.90;;;;;;;19.40;58.81;101584.78;5043984;28;21388;-64
2022/10/28 03:28:16;;;;;;;6.37;3.20;;;;;;;19.42;59.20;101589.97;5044006;28;20416;-64
2022/10/28 03:30:41;;;;;;;6.35;3.25;;;;;;;19.40;59.10;101589.25;5028795;28;20270;-64
2022/10/28 03:33:07;;;;;;;6.45;3.30;;;;;;;19.41;58.87;101585.66;5043831;28;20468;-63
2022/10/28 03:35:32;;;;;;;7.07;3.30;;;;;;;19.40;59.04;101586.59;5043488;28;20025;-62
2022/10/28 03:37:57;;;;;;;5.20;2.92;;;;;;;19.46;59.20;101594.09;5043699;28;20556;-63
2022/10/28 03:40:22;;;;;;;6.67;3.10;;;;;;;19.37;59.21;101577.09;5025703;28;20041;-63
2022/10/28 03:42:48;;;;;;;7.90;3.50;;;;;;;19.45;59.17;101587.09;5043358;28;20273;-62
2022/10/28 03:45:13;;;;;;;6.07;2.90;;;;;;;19.43;59.07;101588.19;5034877;28;20048;-64
2022/10/28 03:47:39;;;;;;;6.07;3.13;;;;;;;19.39;59.31;101579.63;5058852;28;20352;-64
2022/10/28 03:50:04;;;;;;;7.82;3.10;;;;;;;19.40;58.89;101574.22;5028503;28;20509;-63
2022/10/28 03:52:30;;;;;;;5.80;2.72;;;;;;;19.40;59.09;101568.09;5023291;28;20029;-63
2022/10/28 03:54:55;;;;;;;6.10;3.03;;;;;;;19.42;58.88;101571.47;5023433;28;20053;-63
2022/10/28 03:57:20;;;;;;;6.17;2.90;;;;;;;19.44;58.90;101585.44;5023729;28;20361;-64
2022/10/28 03:59:45;;;;;;;7.75;3.00;;;;;;;19.31;58.90;101563.50;5040346;28;20293;-64
2022/10/28 04:02:11;;;;;;;7.00;3.10;;;;;;;19.44;59.25;101587.22;5043132;28;20033;-62
2022/10/28 04:04:36;;;;;;;9.68;3.45;;;;;;;19.42;58.80;101584.69;5027110;28;20350;-62
2022/10/28 04:07:02;;;;;;;7.70;3.60;;;;;;;19.43;59.18;101582.91;5023151;28;20057;-63
2022/10/28 04:09:27;;;;;;;5.78;3.00;;;;;;;19.38;58.63;101578.78;5023315;28;20076;-63
2022/10/28 04:11:52;;;;;;;5.10;2.53;;;;;;;19.42;58.88;101576.75;5023193;28;20338;-63
2022/10/28 04:14:17;;;;;;;6.17;2.70;;;;;;;19.43;58.79;101588.19;5029857;28;20313;-63
2022/10/28 04:16:43;;;;;;;5.37;2.80;;;;;;;19.42;58.94;101591.78;5029537;28;20277;-63
2022/10/28 04:19:08;;;;;;;5.65;3.10;;;;;;;19.36;58.93;101582.53;5042710;28;20277;-62
2022/10/28 04:21:33;;;;;;;7.23;3.37;;;;;;;19.32;58.99;101579.25;5036569;28;20037;-63
2022/10/28 04:23:58;;;;;;;5.45;3.20;;;;;;;19.35;58.63;101584.31;5029616;28;20293;-65
2022/10/28 04:26:24;;;;;;;5.53;2.97;;;;;;;19.42;58.85;101589.13;5042805;28;20148;-63
2022/10/28 04:28:49;;;;;;;7.63;2.75;;;;;;;19.39;59.01;101591.06;5042574;28;20465;-63
2022/10/28 04:31:14;;;;;;;9.20;3.27;;;;;;;19.33;59.00;101575.66;5029632;28;20029;-63
2022/10/28 04:33:40;;;;;;;6.40;3.25;;;;;;;19.36;58.86;101588.66;5022621;28;20746;-63
2022/10/28 04:36:05;;;;;;;7.78;3.13;;;;;;;19.41;58.83;101593.59;5027112;28;20117;-64
2022/10/28 04:38:31;;;;;;;6.82;3.08;;;;;;;19.31;58.66;101576.72;5022813;28;20057;-64
2022/10/28 04:40:56;;;;;;;7.13;3.17;;;;;;;19.41;58.75;101590.94;5022664;28;20037;-63
2022/10/28 04:43:21;;;;;;;6.50;3.05;;;;;;;19.32;58.95;101575.78;5037634;28;20265;-63
2022/10/28 04:45:46;;;;;;;5.95;2.90;;;;;;;19.40;58.99;101599.81;5024840;28;20406;-63
2022/10/28 04:48:12;;;;;;;6.18;2.83;;;;;;;19.38;59.02;101588.53;5022532;28;20167;-63
2022/10/28 04:50:37;;;;;;;6.10;2.73;;;;;;;19.34;58.63;101572.06;5036042;28;20025;-63
2022/10/28 04:53:02;;;;;;;7.22;3.10;;;;;;;19.36;58.64;101590.47;5033165;28;20269;-63
2022/10/28 04:55:28;;;;;;;6.47;3.30;;;;;;;19.32;58.59;101573.13;5035743;28;20034;-63
2022/10/28 04:57:58;;;;;;;7.30;3.05;;;;;;;19.34;58.90;101585.28;5030727;28;20765;-63
2022/10/28 05:00:25;;;;;;;5.18;2.50;;;;;;;19.33;58.80;101578.31;5023633;28;20060;-63
2022/10/28 05:02:50;;;;;;;5.57;2.90;;;;;;;19.34;58.83;101573.84;5041448;28;20020;-63
2022/10/28 05:05:16;;;;;;;5.88;2.85;;;;;;;19.36;58.57;101580.72;5041681;28;20127;-65
2022/10/28 05:07:41;;;;;;;5.22;2.58;;;;;;;19.36;58.74;101575.44;5035385;28;20479;-64
2022/10/28 05:10:07;;;;;;;6.65;2.85;;;;;;;19.34;58.53;101573.84;5037869;28;20495;-64
2022/10/28 05:12:32;;;;;;;6.80;2.85;;;;;;;19.30;58.59;101575.06;5037683;28;20028;-63
2022/10/28 05:14:58;;;;;;;6.03;3.07;;;;;;;19.32;58.86;101584.53;5028745;28;20041;-62
2022/10/28 05:17:23;;;;;;;7.93;2.97;;;;;;;19.35;58.39;101583.47;5028883;28;20262;-63
2022/10/28 05:19:48;;;;;;;5.78;2.60;;;;;;;19.35;58.59;101586.94;5034417;28;20035;-65
2022/10/28 05:22:13;;;;;;;8.73;2.95;;;;;;;19.35;58.58;101586.13;5028067;28;20053;-62
2022/10/28 05:24:39;;;;;;;7.05;2.92;;;;;;;19.32;58.71;101581.06;5040258;28;20094;-63
2022/10/28 05:27:04;;;;;;;6.38;2.80;;;;;;;19.29;58.53;101568.91;5031581;28;20033;-67
2022/10/28 05:29:29;;;;;;;6.38;3.63;;;;;;;19.34;58.87;101579.13;5031465;28;20048;-64
2022/10/28 05:31:55;;;;;;;7.88;3.03;;;;;;;19.37;59.00;101571.81;5036284;28;20041;-63
2022/10/28 05:34:20;;;;;;;7.28;2.60;;;;;;;19.32;58.95;101560.75;5029565;28;20033;-63
2022/10/28 05:36:45;;;;;;;5.80;2.43;;;;;;;19.40;58.66;101578.69;5037134;28;20036;-62
2022/10/28 05:39:12;;;;;;;6.90;2.90;;;;;;;19.40;59.22;101570.75;5032934;28;20274;-63
2022/10/28 05:41:38;;;;;;;6.60;2.67;;;;;;;19.36;58.97;101571.97;5025085;28;20195;-65
2022/10/28 05:44:03;;;;;;;5.78;2.78;;;;;;;19.42;59.02;101578.56;5025718;28;20143;-63
2022/10/28 05:46:28;;;;;;;5.65;2.63;;;;;;;19.36;59.26;101567.50;5041093;28;20036;-61
2022/10/28 05:48:54;;;;;;;6.27;3.20;;;;;;;19.40;59.43;101576.88;5036797;28;20127;-63
2022/10/28 05:51:19;;;;;;;6.38;3.17;;;;;;;19.44;59.45;101572.22;5041141;28;20270;-63
2022/10/28 05:53:44;;;;;;;7.40;3.00;;;;;;;19.40;59.38;101568.09;5034965;28;21124;-63
2022/10/28 05:56:10;;;;;;;8.32;3.20;;;;;;;19.47;59.75;101582.56;5033689;28;20307;-63
2022/10/28 05:58:35;;;;;;;6.97;2.90;;;;;;;19.47;59.69;101576.41;5030405;28;20381;-64
2022/10/28 06:01:00;;;;;;;7.70;2.92;;;;;;;19.44;59.51;101563.41;5035144;28;20040;-63
2022/10/28 06:03:26;;;;;;;9.53;3.87;;;;;;;19.43;59.68;101559.94;5040697;28;20032;-63
2022/10/28 06:05:52;;;;;;;8.93;3.25;;;;;;;19.53;59.34;101570.66;5040765;28;20261;-63
2022/10/28 06:08:18;;;;;;;6.40;3.03;;;;;;;19.47;59.31;101553.47;5021195;28;20115;-62
2022/10/28 06:10:50;;;;;;;6.97;2.90;;;;;;;19.55;59.65;101577.53;5040078;28;20053;-62
2022/10/28 06:13:15;;;;;;;10.52;2.90;;;;;;;19.55;59.51;101577.53;5039958;28;20037;-63
2022/10/28 06:15:40;;;;;;;10.07;3.50;;;;;;;19.53;59.77;101574.13;5040974;28;20423;-64
2022/10/28 06:18:05;;;;;;;6.70;3.20;;;;;;;19.57;59.45;101582.69;5029216;28;20042;-64
2022/10/28 06:20:31;;;;;;;5.07;2.92;;;;;;;19.51;59.82;101573.41;5038602;28;20274;-62
2022/10/28 06:22:56;;;;;;;7.78;3.42;;;;;;;19.53;59.94;101573.31;5024956;28;20425;-63
2022/10/28 06:25:22;;;;;;;5.10;2.80;;;;;;;19.59;59.80;101580.78;5025236;28;20147;-66
2022/10/28 06:27:59;;;;;;;7.47;3.15;;;;;;;19.62;59.95;101582.34;5028221;28;20557;-64
2022/10/28 06:30:26;;;;;;;6.47;3.00;;;;;;;19.60;59.69;101576.31;5025138;28;20128;-64
2022/10/28 06:32:52;;;;;;;6.38;3.22;;;;;;;19.57;59.77;101572.97;5025103;28;20044;-64
2022/10/28 06:35:18;;;;;;;6.07;2.95;;;;;;;19.57;59.96;101566.84;5025175;28;20037;-64
2022/10/28 06:37:43;;;;;;;7.07;3.10;;;;;;;19.64;59.80;101575.97;5033732;28;20032;-66
2022/10/28 06:40:09;;;;;;;6.43;3.38;;;;;;;19.57;59.81;101559.75;5044456;28;20469;-65
2022/10/28 06:42:34;;;;;;;7.55;3.53;;;;;;;19.58;59.92;101571.16;5037231;28;20128;-68
2022/10/28 06:44:59;;;;;;;8.18;2.90;;;;;;;19.61;59.64;101570.91;5024908;28;20099;-68
2022/10/28 06:47:25;;;;;;;5.53;2.77;;;;;;;19.62;59.87;101571.78;5027044;28;20714;-67
2022/10/28 06:49:50;;;;;;;9.55;2.97;;;;;;;19.67;60.16;101581.03;5044360;28;20293;-65
2022/10/28 06:52:15;;;;;;;8.80;3.22;;;;;;;19.67;59.81;101573.09;5044543;28;20377;-64
2022/10/28 06:54:42;;;;;;;9.38;3.10;;;;;;;19.73;60.29;101582.38;5044165;28;20607;-67
2022/10/28 06:57:07;;;;;;;9.10;2.78;;;;;;;19.73;60.28;101575.28;5044629;28;20060;-67
2022/10/28 06:59:33;;;;;;;5.30;2.80;;;;;;;19.68;60.27;101568.66;5036444;28;20480;-65
2022/10/28 07:01:58;;;;;;;7.73;3.23;;;;;;;19.77;59.94;101585.66;5027607;28;20470;-67
2022/10/28 07:04:23;;;;;;;6.93;3.27;;;;;;;19.72;60.13;101573.59;5024416;28;20259;-68
2022/10/28 07:06:54;;;;;;;7.83;3.53;;;;;;;19.72;60.01;101567.47;5033941;28;20289;-66
2022/10/28 07:09:19;;;;;;;8.43;3.10;;;;;;;19.71;59.80;101568.41;5041136;28;20583;-68
2022/10/28 07:11:48;;;;;;;7.67;3.27;;;;;;;19.74;59.71;101573.47;5032123;28;20044;-69
2022/10/28 07:14:13;;;;;;;7.75;3.20;;;;;;;19.72;59.48;101570.09;5054552;28;20284;-69
2022/10/28 07:16:38;;;;;;;9.37;3.00;;;;;;;19.70;59.83;101569.38;5044531;28;20029;-68
2022/10/28 07:19:03;;;;;;;6.37;3.00;;;;;;;19.72;59.86;101578.03;5040615;28;20293;-69
2022/10/28 07:21:29;;;;;;;12.15;3.15;;;;;;;19.77;59.71;101589.13;5027592;28;20610;-67
2022/10/28 07:23:55;;;;;;;7.23;2.90;;;;;;;19.75;59.77;101585.75;5036993;28;20103;-68
2022/10/28 07:26:21;;;;;;;6.85;3.80;;;;;;;19.76;59.92;101587.47;5024201;28;20278;-67
2022/10/28 07:28:47;;;;;;;7.13;3.17;;;;;;;19.75;59.81;101585.75;5024880;28;20111;-68
2022/10/28 07:31:12;;;;;;;8.27;3.55;;;;;;;19.76;59.91;101590.09;5039035;28;21049;-68
2022/10/28 07:33:38;;;;;;;7.05;3.25;;;;;;;19.74;59.78;101589.34;5043448;28;20036;-67
2022/10/28 07:36:04;;;;;;;8.23;2.85;;;;;;;19.83;60.08;101604.53;5030311;28;20466;-69
2022/10/28 07:38:29;;;;;;;7.78;3.00;;;;;;;19.78;59.97;101595.28;5035830;28;20029;-68
2022/10/28 07:40:55;;;;;;;6.75;3.10;;;;;;;19.84;60.19;101603.59;5041481;28;20383;-67
2022/10/28 07:43:20;;;;;;;7.28;3.10;;;;;;;19.80;60.30;101588.06;5030951;28;20376;-67
2022/10/28 07:45:45;;;;;;;8.27;3.50;;;;;;;19.87;60.00;101605.16;5036355;28;20045;-67
2022/10/28 07:48:10;;;;;;;7.03;2.90;;;;;;;19.87;60.10;101586.66;5023875;28;20282;-67
2022/10/28 07:50:36;;;;;;;8.75;3.05;;;;;;;19.86;60.17;101587.59;4961405;28;20323;-66
2022/10/28 07:53:01;;;;;;;7.83;3.17;;;;;;;19.88;60.19;101580.38;5023234;28;20119;-69
2022/10/28 07:55:26;;;;;;;7.45;3.20;;;;;;;19.87;60.21;101574.25;5022956;28;20282;-69
2022/10/28 07:57:52;;;;;;;8.13;3.30;;;;;;;19.82;60.02;101568.47;5023559;28;20072;-68
2022/10/28 08:00:17;;;;;;;8.20;2.83;;;;;;;19.89;60.01;101577.63;5023159;28;20029;-70
2022/10/28 08:02:42;;;;;;;7.88;2.83;;;;;;;19.82;60.05;101576.41;5037930;28;20033;-69
2022/10/28 08:05:08;;;;;;;7.63;3.00;;;;;;;19.90;60.07;101589.03;5023083;28;20033;-67
2022/10/28 08:07:34;;;;;;;9.85;3.65;;;;;;;19.88;60.26;101581.22;5022952;28;20072;-68
2022/10/28 08:09:59;;;;;;;8.40;3.25;;;;;;;19.87;60.09;101576.91;5020579;28;20549;-70
2022/10/28 08:12:24;;;;;;;5.93;2.83;;;;;;;19.75;60.21;101559.28;5022988;28;20025;-66
2022/10/28 08:14:53;;;;;;;10.57;3.25;;;;;;;19.93;60.18;101599.38;5022804;28;20313;-68
2022/10/28 08:17:18;;;;;;;8.40;2.83;;;;;;;19.94;60.13;101609.00;5022928;28;20120;-67
2022/10/28 08:19:43;;;;;;;7.63;3.00;;;;;;;19.96;60.17;101614.19;5022960;28;20116;-69
2022/10/28 08:22:09;;;;;;;8.75;3.10;;;;;;;19.91;60.13;101610.06;5020939;28;20136;-68
2022/10/28 08:24:35;;;;;;;7.65;3.00;;;;;;;19.90;60.32;101607.53;5022494;28;20499;-68
2022/10/28 08:27:00;;;;;;;9.50;3.30;;;;;;;19.92;60.52;101616.22;5022227;28;20030;-69
2022/10/28 08:29:26;;;;;;;8.05;2.83;;;;;;;19.96;60.26;101616.81;5023060;28;20103;-68
2022/10/28 08:31:51;;;;;;;5.82;2.80;;;;;;;19.89;60.51;101596.13;5022275;28;20465;-68
2022/10/28 08:34:16;;;;;;;6.82;2.78;;;;;;;19.98;60.59;101613.13;5022394;28;20041;-67
2022/10/28 08:36:41;;;;;;;8.80;3.08;;;;;;;19.96;60.40;101609.72;5022596;28;20144;-69
2022/10/28 08:39:07;;;;;;;9.33;2.90;;;;;;;19.89;60.49;101604.06;5021925;28;20033;-69
2022/10/28 08:41:46;;;;;;;7.65;2.83;;;;;;;19.90;60.51;101602.25;5021560;28;20345;-69
2022/10/28 08:44:40;;;;;;;8.77;3.10;;;;;;;19.92;60.14;101600.34;5037705;28;20079;-68
2022/10/28 08:47:14;;;;;;;;;;;;;;;19.96;60.43;101604.44;5021740;28;20033;-71
2022/10/28 08:49:41;;;;;;;8.25;3.65;;;;;;;19.96;60.32;101593.84;5022312;28;19909;-68
2022/10/28 08:52:24;;;;;;;8.07;3.20;;;;;;;19.94;60.80;101583.38;5021824;28;20473;-68
2022/10/28 08:54:55;;;;;;;6.88;3.08;;;;;;;19.98;60.50;101605.19;5021940;28;20112;-70
2022/10/28 08:57:32;;;;;;;7.78;3.22;;;;;;;20.01;60.71;101604.06;5021451;28;20037;-68
2022/10/28 08:59:58;;;;;;;7.30;3.92;;;;;;;19.94;60.63;101596.63;5021903;28;20059;-69
2022/10/28 09:02:27;;;;;;;8.30;2.85;;;;;;;19.99;60.97;101604.19;5022272;28;20033;-66
2022/10/28 09:05:18;;;;;;;5.75;2.97;;;;;;;20.03;60.81;101610.13;5022093;28;20021;-71
2022/10/28 09:07:43;;;;;;;9.18;2.53;;;;;;;19.95;61.14;101605.41;5021147;28;20424;-69
2022/10/28 09:10:13;;;;;;;10.53;3.10;;;;;;;20.02;60.78;101609.25;5021795;28;20029;-68
2022/10/28 09:13:05;;;;;;;7.53;3.00;;;;;;;20.01;61.08;101612.88;5021686;28;20781;-67
2022/10/28 09:15:35;;;;;;;8.75;3.17;;;;;;;19.92;60.95;101609.13;5021968;28;20497;-74
2022/10/28 09:18:13;;;;;;;10.30;3.25;;;;;;;20.02;60.90;101619.84;5018366;28;20042;-67
2022/10/28 09:20:50;;;;;;;12.05;3.13;;;;;;;20.01;60.93;101625.25;5020338;28;20053;-67
2022/10/28 09:23:28;;;;;;;9.15;3.38;;;;;;;19.94;60.77;101614.31;5020365;28;20072;-73
2022/10/28 09:26:34;;;;;;;8.40;3.25;;;;;;;20.02;60.78;101625.13;5020322;28;20049;-72
2022/10/28 09:29:11;;;;;;;;;;;;;;;20.05;60.67;101629.34;5021846;28;20264;-72
2022/10/28 09:31:41;;;;;;;6.15;3.17;;;;;;;20.04;60.48;101607.31;5021090;28;19916;-73
2022/10/28 09:34:16;;;;;;;11.82;3.15;;;;;;;20.07;60.41;101607.09;5020098;28;20041;-70
2022/10/28 09:36:48;;;;;;;7.45;2.90;;;;;;;20.15;59.98;101619.72;5020255;28;20033;-73
2022/10/28 09:39:19;;;;;;;7.65;2.80;;;;;;;20.14;60.14;101612.78;5020317;28;20026;-73
2022/10/28 09:41:46;;;;;;;7.85;2.90;;;;;;;20.17;59.89;101617.81;5020748;28;20462;-69
2022/10/28 09:44:19;;;;;;;7.40;3.40;;;;;;;20.26;59.30;101637.44;5019776;28;20037;-64
2022/10/28 09:46:53;;;;;;;6.53;2.90;;;;;;;20.25;60.00;101618.06;5021045;28;20075;-71
2022/10/28 09:49:30;;;;;;;9.75;3.10;;;;;;;20.27;59.97;101626.72;5019732;28;20389;-71
2022/10/28 09:52:14;;;;;;;6.97;2.80;;;;;;;20.32;59.38;101631.66;5020057;28;20038;-73
2022/10/28 09:54:45;;;;;;;6.43;3.00;;;;;;;20.38;59.17;101638.28;5020795;28;20116;-70
2022/10/28 09:57:10;;;;;;;8.45;3.03;;;;;;;20.40;58.96;101628.41;5034739;28;20029;-69
2022/10/28 09:59:36;;;;;;;7.90;2.88;;;;;;;20.39;59.01;101626.72;5020434;28;20064;-70
2022/10/28 10:02:03;;;;;;;7.53;3.30;;;;;;;20.45;59.35;101631.53;5019533;28;20033;-61
2022/10/28 10:04:32;;;;;;;8.55;3.20;;;;;;;20.37;59.53;101623.34;5020209;28;20021;-60
2022/10/28 10:07:04;;;;;;;8.60;2.72;;;;;;;20.36;59.23;101627.81;5017111;28;20029;-72
2022/10/28 10:09:32;;;;;;;7.07;2.90;;;;;;;20.45;59.15;101626.22;5019572;28;20539;-75
2022/10/28 10:12:11;;;;;;;6.07;2.78;;;;;;;20.42;59.35;101632.59;5019706;28;20083;-67
2022/10/28 10:14:44;;;;;;;7.53;2.95;;;;;;;20.38;59.19;101615.28;5020205;28;20120;-66
2022/10/28 10:17:20;;;;;;;7.15;2.72;;;;;;;20.38;59.24;101619.75;5019774;28;20054;-67
2022/10/28 10:20:09;;;;;;;9.05;3.10;;;;;;;20.45;58.91;101637.66;5020105;28;20030;-72
2022/10/28 10:22:37;;;;;;;7.57;3.05;;;;;;;20.42;58.84;101621.19;5020073;28;20148;-73
2022/10/28 10:25:17;;;;;;;6.20;3.30;;;;;;;20.51;58.75;101630.22;5020416;28;20103;-72
2022/10/28 10:27:56;;;;;;;6.75;2.80;;;;;;;20.48;58.95;101623.34;5019202;28;20033;-75
2022/10/28 10:30:35;;;;;;;7.07;2.92;;;;;;;20.51;58.87;101619.63;5019703;28;20033;-74
2022/10/28 10:33:01;;;;;;;11.73;3.05;;;;;;;20.51;59.25;101619.63;5018207;28;20037;-79
2022/10/28 10:35:32;;;;;;;9.15;2.78;;;;;;;20.64;59.23;101620.34;5018075;28;20802;-78
2022/10/28 10:38:01;;;;;;;10.68;3.58;;;;;;;20.74;58.87;101623.09;5018794;28;20034;-79
2022/10/28 10:40:30;;;;;;;9.18;3.30;;;;;;;20.73;58.65;101608.16;5019959;28;20030;-80
2022/10/28 10:43:12;;;;;;;10.02;3.45;;;;;;;20.80;57.78;101598.78;5020707;28;20064;-80
2022/10/28 10:45:38;;;;;;;9.65;3.88;;;;;;;20.89;57.94;101603.31;5020776;28;20045;-80
2022/10/28 10:48:14;;;;;;;15.82;3.40;;;;;;;20.84;57.30;101587.81;5020176;28;20033;-79
2022/10/28 10:50:42;;;;;;;13.00;4.75;;;;;;;20.87;57.70;101596.47;5019850;28;20044;-70
2022/10/28 10:53:20;;;;;;;19.85;5.57;;;;;;;20.89;57.95;101591.91;5020597;28;20029;-63
2022/10/28 10:55:52;;;;;;;28.38;13.60;;;;;;;20.84;57.96;101589.63;5020707;28;20033;-62
2022/10/28 10:58:20;;;;;;;20.73;12.85;;;;;;;20.83;58.43;101596.72;5020637;28;20478;-65
2022/10/28 11:00:51;;;;;;;23.75;12.90;;;;;;;20.79;58.67;101599.72;5020360;28;20029;-63
2022/10/28 11:03:24;;;;;;;24.88;13.23;;;;;;;20.69;58.51;101596.97;5021147;28;20045;-62
2022/10/28 11:05:54;;;;;;;27.63;13.43;;;;;;;20.71;58.88;101613.63;5023363;28;20043;-64
2022/10/28 11:08:41;;;;;;;24.92;14.75;;;;;;;20.68;58.83;101619.16;5023661;28;20517;-63
2022/10/28 11:11:12;;;;;;;24.35;14.50;;;;;;;20.63;59.31;101600.09;5023470;28;20039;-63
2022/10/28 11:13:38;;;;;;;23.85;14.55;;;;;;;20.68;59.41;101623.59;5023694;28;20373;-63
2022/10/28 11:16:06;;;;;;;21.42;14.43;;;;;;;20.55;59.31;101590.09;5023188;28;20114;-62
2022/10/28 11:18:43;;;;;;;18.95;14.13;;;;;;;20.61;59.92;101594.91;5022456;28;20091;-64
2022/10/28 11:21:23;;;;;;;21.35;14.57;;;;;;;20.65;59.81;101596.41;5023641;28;20465;-64
2022/10/28 11:24:12;;;;;;;22.50;13.65;;;;;;;20.65;59.75;101591.09;5021639;28;20538;-73
2022/10/28 11:26:53;;;;;;;20.10;13.45;;;;;;;20.68;59.75;101595.31;5019151;28;20132;-74
2022/10/28 11:29:18;;;;;;;21.30;12.98;;;;;;;20.59;59.74;101575.66;5019268;28;20038;-76
2022/10/28 11:32:10;;;;;;;20.73;13.25;;;;;;;20.72;59.72;101601.22;5017532;28;20033;-73
2022/10/28 11:35:05;;;;;;;29.48;12.85;;;;;;;20.69;59.86;101593.50;4979604;28;20045;-71
2022/10/28 11:37:49;;;;;;;22.83;13.75;;;;;;;20.75;59.98;101614.19;5019509;28;20517;-72